sensor_id;sensor_type;location;lat;lon;timestamp;P1;durP1;ratioP1;P2;durP2;ratioP2
22843;SDS011;11588;51.178;4.852;2024-01-11T00:01:39;41.33;;;19.88;;
22843;SDS011;11588;51.178;4.852;2024-01-11T00:04:05;40.08;;;19.98;;
22843;SDS011;11588;51.178;4.852;2024-01-11T00:06:32;40.35;;;19.13;;
22843;SDS011;11588;51.178;4.852;2024-01-11T00:08:59;41.75;;;19.67;;
22843;SDS011;11588;51.178;4.852;2024-01-11T00:11:26;36.72;;;18.88;;
22843;SDS011;11588;51.178;4.852;2024-01-11T00:13:52;39.92;;;20.20;;
22843;SDS011;11588;51.178;4.852;2024-01-11T00:16:19;40.10;;;19.77;;
22843;SDS011;11588;51.178;4.852;2024-01-11T00:18:46;36.45;;;20.35;;
22843;SDS011;11588;51.178;4.852;2024-01-11T00:21:12;40.80;;;20.58;;
22843;SDS011;11588;51.178;4.852;2024-01-11T00:23:39;40.30;;;20.30;;
22843;SDS011;11588;51.178;4.852;2024-01-11T00:26:06;41.92;;;20.45;;
22843;SDS011;11588;51.178;4.852;2024-01-11T00:28:32;37.33;;;19.55;;
22843;SDS011;11588;51.178;4.852;2024-01-11T00:30:59;43.13;;;21.35;;
22843;SDS011;11588;51.178;4.852;2024-01-11T00:33:26;39.75;;;20.48;;
22843;SDS011;11588;51.178;4.852;2024-01-11T00:35:52;41.25;;;21.08;;
22843;SDS011;11588;51.178;4.852;2024-01-11T00:38:21;43.30;;;19.95;;
22843;SDS011;11588;51.178;4.852;2024-01-11T00:40:46;39.33;;;20.10;;
22843;SDS011;11588;51.178;4.852;2024-01-11T00:43:13;44.67;;;20.02;;
22843;SDS011;11588;51.178;4.852;2024-01-11T00:45:40;43.45;;;21.60;;
22843;SDS011;11588;51.178;4.852;2024-01-11T00:48:07;44.00;;;21.63;;
22843;SDS011;11588;51.178;4.852;2024-01-11T00:50:33;41.60;;;20.20;;
22843;SDS011;11588;51.178;4.852;2024-01-11T00:53:00;39.80;;;20.42;;
22843;SDS011;11588;51.178;4.852;2024-01-11T00:55:27;40.42;;;20.63;;
22843;SDS011;11588;51.178;4.852;2024-01-11T00:57:54;40.03;;;20.17;;
22843;SDS011;11588;51.178;4.852;2024-01-11T01:00:20;37.85;;;20.05;;
22843;SDS011;11588;51.178;4.852;2024-01-11T01:02:47;44.60;;;20.88;;
22843;SDS011;11588;51.178;4.852;2024-01-11T01:05:13;44.50;;;22.20;;
22843;SDS011;11588;51.178;4.852;2024-01-11T01:07:40;42.33;;;20.80;;
22843;SDS011;11588;51.178;4.852;2024-01-11T01:10:07;43.05;;;21.25;;
22843;SDS011;11588;51.178;4.852;2024-01-11T01:12:34;40.53;;;21.33;;
22843;SDS011;11588;51.178;4.852;2024-01-11T01:15:01;48.90;;;22.35;;
22843;SDS011;11588;51.178;4.852;2024-01-11T01:17:27;42.83;;;20.98;;
22843;SDS011;11588;51.178;4.852;2024-01-11T01:19:54;45.20;;;22.15;;
22843;SDS011;11588;51.178;4.852;2024-01-11T01:22:21;45.10;;;21.95;;
22843;SDS011;11588;51.178;4.852;2024-01-11T01:24:47;42.40;;;22.17;;
22843;SDS011;11588;51.178;4.852;2024-01-11T01:27:14;42.90;;;21.67;;
22843;SDS011;11588;51.178;4.852;2024-01-11T01:29:40;40.30;;;20.95;;
22843;SDS011;11588;51.178;4.852;2024-01-11T01:32:07;38.85;;;20.55;;
22843;SDS011;11588;51.178;4.852;2024-01-11T01:34:34;44.00;;;21.70;;
22843;SDS011;11588;51.178;4.852;2024-01-11T01:37:00;42.83;;;23.08;;
22843;SDS011;11588;51.178;4.852;2024-01-11T01:39:27;49.67;;;22.50;;
22843;SDS011;11588;51.178;4.852;2024-01-11T01:41:55;45.35;;;21.67;;
22843;SDS011;11588;51.178;4.852;2024-01-11T01:44:20;41.20;;;22.02;;
22843;SDS011;11588;51.178;4.852;2024-01-11T01:46:47;43.75;;;22.00;;
22843;SDS011;11588;51.178;4.852;2024-01-11T01:49:15;41.03;;;21.35;;
22843;SDS011;11588;51.178;4.852;2024-01-11T01:51:44;40.45;;;20.95;;
22843;SDS011;11588;51.178;4.852;2024-01-11T01:54:11;42.35;;;21.88;;
22843;SDS011;11588;51.178;4.852;2024-01-11T01:56:37;44.40;;;21.90;;
22843;SDS011;11588;51.178;4.852;2024-01-11T01:59:04;45.35;;;22.58;;
22843;SDS011;11588;51.178;4.852;2024-01-11T02:01:31;47.22;;;22.02;;
22843;SDS011;11588;51.178;4.852;2024-01-11T02:03:58;42.35;;;21.20;;
22843;SDS011;11588;51.178;4.852;2024-01-11T02:06:25;45.22;;;22.65;;
22843;SDS011;11588;51.178;4.852;2024-01-11T02:08:55;45.60;;;23.00;;
22843;SDS011;11588;51.178;4.852;2024-01-11T02:11:22;48.85;;;22.67;;
22843;SDS011;11588;51.178;4.852;2024-01-11T02:13:49;42.30;;;21.23;;
22843;SDS011;11588;51.178;4.852;2024-01-11T02:16:16;44.00;;;22.30;;
22843;SDS011;11588;51.178;4.852;2024-01-11T02:18:43;43.05;;;21.50;;
22843;SDS011;11588;51.178;4.852;2024-01-11T02:21:11;41.17;;;21.92;;
22843;SDS011;11588;51.178;4.852;2024-01-11T02:23:42;41.72;;;21.05;;
22843;SDS011;11588;51.178;4.852;2024-01-11T02:26:13;46.80;;;22.27;;
22843;SDS011;11588;51.178;4.852;2024-01-11T02:28:43;46.03;;;22.40;;
22843;SDS011;11588;51.178;4.852;2024-01-11T02:31:10;44.03;;;22.15;;
22843;SDS011;11588;51.178;4.852;2024-01-11T02:33:37;45.50;;;22.20;;
22843;SDS011;11588;51.178;4.852;2024-01-11T02:36:04;46.35;;;23.45;;
22843;SDS011;11588;51.178;4.852;2024-01-11T02:38:30;44.75;;;22.10;;
22843;SDS011;11588;51.178;4.852;2024-01-11T02:40:57;45.65;;;22.08;;
22843;SDS011;11588;51.178;4.852;2024-01-11T02:43:25;47.28;;;22.55;;
22843;SDS011;11588;51.178;4.852;2024-01-11T02:45:55;46.13;;;22.60;;
22843;SDS011;11588;51.178;4.852;2024-01-11T02:48:28;43.42;;;22.02;;
22843;SDS011;11588;51.178;4.852;2024-01-11T02:50:58;44.58;;;21.67;;
22843;SDS011;11588;51.178;4.852;2024-01-11T02:53:24;45.90;;;22.45;;
22843;SDS011;11588;51.178;4.852;2024-01-11T02:55:51;47.85;;;22.92;;
22843;SDS011;11588;51.178;4.852;2024-01-11T02:58:18;45.55;;;21.75;;
22843;SDS011;11588;51.178;4.852;2024-01-11T03:00:44;44.45;;;22.13;;
22843;SDS011;11588;51.178;4.852;2024-01-11T03:03:12;44.42;;;22.73;;
22843;SDS011;11588;51.178;4.852;2024-01-11T03:05:38;49.13;;;22.23;;
22843;SDS011;11588;51.178;4.852;2024-01-11T03:08:05;42.45;;;22.13;;
22843;SDS011;11588;51.178;4.852;2024-01-11T03:10:32;50.08;;;23.25;;
22843;SDS011;11588;51.178;4.852;2024-01-11T03:12:59;47.58;;;22.88;;
22843;SDS011;11588;51.178;4.852;2024-01-11T03:15:26;43.10;;;21.45;;
22843;SDS011;11588;51.178;4.852;2024-01-11T03:17:52;47.30;;;22.65;;
22843;SDS011;11588;51.178;4.852;2024-01-11T03:20:19;49.03;;;22.00;;
22843;SDS011;11588;51.178;4.852;2024-01-11T03:22:51;47.22;;;22.70;;
22843;SDS011;11588;51.178;4.852;2024-01-11T03:25:21;50.22;;;22.20;;
22843;SDS011;11588;51.178;4.852;2024-01-11T03:27:48;46.75;;;22.48;;
22843;SDS011;11588;51.178;4.852;2024-01-11T03:30:14;44.97;;;22.50;;
22843;SDS011;11588;51.178;4.852;2024-01-11T03:32:42;46.05;;;23.20;;
22843;SDS011;11588;51.178;4.852;2024-01-11T03:35:09;46.90;;;23.65;;
22843;SDS011;11588;51.178;4.852;2024-01-11T03:37:35;44.35;;;22.23;;
22843;SDS011;11588;51.178;4.852;2024-01-11T03:40:03;47.63;;;23.65;;
22843;SDS011;11588;51.178;4.852;2024-01-11T03:42:30;46.40;;;22.40;;
22843;SDS011;11588;51.178;4.852;2024-01-11T03:44:56;51.40;;;23.85;;
22843;SDS011;11588;51.178;4.852;2024-01-11T03:47:23;46.00;;;23.27;;
22843;SDS011;11588;51.178;4.852;2024-01-11T03:49:50;52.70;;;23.80;;
22843;SDS011;11588;51.178;4.852;2024-01-11T03:52:17;53.78;;;24.50;;
22843;SDS011;11588;51.178;4.852;2024-01-11T03:54:43;47.80;;;24.05;;
22843;SDS011;11588;51.178;4.852;2024-01-11T03:57:10;46.53;;;22.42;;
22843;SDS011;11588;51.178;4.852;2024-01-11T03:59:37;50.22;;;22.98;;
22843;SDS011;11588;51.178;4.852;2024-01-11T04:02:03;53.70;;;22.92;;
22843;SDS011;11588;51.178;4.852;2024-01-11T04:04:30;49.17;;;22.85;;
22843;SDS011;11588;51.178;4.852;2024-01-11T04:06:57;44.45;;;22.80;;
22843;SDS011;11588;51.178;4.852;2024-01-11T04:09:25;44.58;;;22.33;;
22843;SDS011;11588;51.178;4.852;2024-01-11T04:11:51;52.40;;;23.50;;
22843;SDS011;11588;51.178;4.852;2024-01-11T04:14:17;48.22;;;22.50;;
22843;SDS011;11588;51.178;4.852;2024-01-11T04:16:44;45.00;;;22.30;;
22843;SDS011;11588;51.178;4.852;2024-01-11T04:19:11;49.60;;;23.30;;
22843;SDS011;11588;51.178;4.852;2024-01-11T04:21:37;45.60;;;23.40;;
22843;SDS011;11588;51.178;4.852;2024-01-11T04:24:05;44.95;;;22.63;;
22843;SDS011;11588;51.178;4.852;2024-01-11T04:26:33;44.22;;;22.40;;
22843;SDS011;11588;51.178;4.852;2024-01-11T04:28:59;47.38;;;23.38;;
22843;SDS011;11588;51.178;4.852;2024-01-11T04:31:26;43.67;;;21.80;;
22843;SDS011;11588;51.178;4.852;2024-01-11T04:33:53;46.42;;;22.02;;
22843;SDS011;11588;51.178;4.852;2024-01-11T04:36:20;48.72;;;23.13;;
22843;SDS011;11588;51.178;4.852;2024-01-11T04:38:46;49.78;;;23.25;;
22843;SDS011;11588;51.178;4.852;2024-01-11T04:41:14;46.75;;;23.17;;
22843;SDS011;11588;51.178;4.852;2024-01-11T04:43:41;51.05;;;23.83;;
22843;SDS011;11588;51.178;4.852;2024-01-11T04:48:44;46.95;;;23.55;;
22843;SDS011;11588;51.178;4.852;2024-01-11T04:51:11;50.45;;;22.92;;
22843;SDS011;11588;51.178;4.852;2024-01-11T04:53:39;46.25;;;22.30;;
22843;SDS011;11588;51.178;4.852;2024-01-11T04:56:06;44.90;;;22.77;;
22843;SDS011;11588;51.178;4.852;2024-01-11T04:58:33;44.00;;;21.58;;
22843;SDS011;11588;51.178;4.852;2024-01-11T05:00:59;42.80;;;22.33;;
22843;SDS011;11588;51.178;4.852;2024-01-11T05:03:28;47.55;;;22.65;;
22843;SDS011;11588;51.178;4.852;2024-01-11T05:05:53;47.22;;;22.65;;
22843;SDS011;11588;51.178;4.852;2024-01-11T05:08:19;47.67;;;22.95;;
22843;SDS011;11588;51.178;4.852;2024-01-11T05:10:45;49.35;;;22.60;;
22843;SDS011;11588;51.178;4.852;2024-01-11T05:13:12;43.95;;;22.27;;
22843;SDS011;11588;51.178;4.852;2024-01-11T05:15:38;44.83;;;23.25;;
22843;SDS011;11588;51.178;4.852;2024-01-11T05:18:05;43.88;;;21.08;;
22843;SDS011;11588;51.178;4.852;2024-01-11T05:20:30;46.30;;;22.40;;
22843;SDS011;11588;51.178;4.852;2024-01-11T05:22:57;51.75;;;22.48;;
22843;SDS011;11588;51.178;4.852;2024-01-11T05:25:23;50.03;;;23.17;;
22843;SDS011;11588;51.178;4.852;2024-01-11T05:27:50;46.92;;;22.65;;
22843;SDS011;11588;51.178;4.852;2024-01-11T05:30:16;46.67;;;23.10;;
22843;SDS011;11588;51.178;4.852;2024-01-11T05:32:43;48.03;;;23.88;;
22843;SDS011;11588;51.178;4.852;2024-01-11T05:35:09;43.85;;;21.08;;
22843;SDS011;11588;51.178;4.852;2024-01-11T05:37:36;46.63;;;22.67;;
22843;SDS011;11588;51.178;4.852;2024-01-11T05:40:03;46.05;;;22.45;;
22843;SDS011;11588;51.178;4.852;2024-01-11T05:42:30;42.83;;;20.88;;
22843;SDS011;11588;51.178;4.852;2024-01-11T05:44:56;44.17;;;22.40;;
22843;SDS011;11588;51.178;4.852;2024-01-11T05:47:22;49.08;;;22.67;;
22843;SDS011;11588;51.178;4.852;2024-01-11T05:49:48;50.00;;;22.73;;
22843;SDS011;11588;51.178;4.852;2024-01-11T05:52:16;43.92;;;22.25;;
22843;SDS011;11588;51.178;4.852;2024-01-11T05:54:42;44.67;;;21.92;;
22843;SDS011;11588;51.178;4.852;2024-01-11T05:57:09;47.67;;;22.20;;
22843;SDS011;11588;51.178;4.852;2024-01-11T05:59:35;45.45;;;22.90;;
22843;SDS011;11588;51.178;4.852;2024-01-11T06:02:02;42.22;;;22.15;;
22843;SDS011;11588;51.178;4.852;2024-01-11T06:04:28;49.22;;;21.95;;
22843;SDS011;11588;51.178;4.852;2024-01-11T06:06:58;48.30;;;22.52;;
22843;SDS011;11588;51.178;4.852;2024-01-11T06:09:25;45.42;;;23.85;;
22843;SDS011;11588;51.178;4.852;2024-01-11T06:11:51;51.33;;;21.58;;
22843;SDS011;11588;51.178;4.852;2024-01-11T06:14:18;48.40;;;23.15;;
22843;SDS011;11588;51.178;4.852;2024-01-11T06:16:44;44.72;;;23.08;;
22843;SDS011;11588;51.178;4.852;2024-01-11T06:19:10;45.85;;;22.48;;
22843;SDS011;11588;51.178;4.852;2024-01-11T06:21:37;43.67;;;22.10;;
22843;SDS011;11588;51.178;4.852;2024-01-11T06:24:03;46.97;;;21.67;;
22843;SDS011;11588;51.178;4.852;2024-01-11T06:26:30;44.70;;;22.20;;
22843;SDS011;11588;51.178;4.852;2024-01-11T06:28:56;48.20;;;22.30;;
22843;SDS011;11588;51.178;4.852;2024-01-11T06:31:22;44.05;;;23.23;;
22843;SDS011;11588;51.178;4.852;2024-01-11T06:33:48;40.88;;;21.27;;
22843;SDS011;11588;51.178;4.852;2024-01-11T06:36:15;50.20;;;21.77;;
22843;SDS011;11588;51.178;4.852;2024-01-11T06:38:44;47.45;;;22.02;;
22843;SDS011;11588;51.178;4.852;2024-01-11T06:41:10;45.38;;;21.98;;
22843;SDS011;11588;51.178;4.852;2024-01-11T06:43:37;46.33;;;22.17;;
22843;SDS011;11588;51.178;4.852;2024-01-11T06:46:03;44.15;;;21.98;;
22843;SDS011;11588;51.178;4.852;2024-01-11T06:48:30;43.55;;;20.77;;
22843;SDS011;11588;51.178;4.852;2024-01-11T06:50:57;44.95;;;22.25;;
22843;SDS011;11588;51.178;4.852;2024-01-11T06:53:23;43.20;;;21.80;;
22843;SDS011;11588;51.178;4.852;2024-01-11T06:55:50;46.78;;;22.15;;
22843;SDS011;11588;51.178;4.852;2024-01-11T06:58:20;43.45;;;21.85;;
22843;SDS011;11588;51.178;4.852;2024-01-11T07:00:48;44.72;;;21.90;;
22843;SDS011;11588;51.178;4.852;2024-01-11T07:03:16;46.42;;;22.15;;
22843;SDS011;11588;51.178;4.852;2024-01-11T07:05:43;48.50;;;21.70;;
22843;SDS011;11588;51.178;4.852;2024-01-11T07:08:09;50.03;;;23.33;;
22843;SDS011;11588;51.178;4.852;2024-01-11T07:10:36;46.20;;;22.77;;
22843;SDS011;11588;51.178;4.852;2024-01-11T07:13:03;44.25;;;22.27;;
22843;SDS011;11588;51.178;4.852;2024-01-11T07:15:30;48.38;;;22.42;;
22843;SDS011;11588;51.178;4.852;2024-01-11T07:17:56;43.10;;;21.83;;
22843;SDS011;11588;51.178;4.852;2024-01-11T07:20:23;45.05;;;21.70;;
22843;SDS011;11588;51.178;4.852;2024-01-11T07:22:49;42.55;;;22.00;;
22843;SDS011;11588;51.178;4.852;2024-01-11T07:25:15;46.22;;;21.70;;
22843;SDS011;11588;51.178;4.852;2024-01-11T07:27:43;47.78;;;22.15;;
22843;SDS011;11588;51.178;4.852;2024-01-11T07:30:10;43.42;;;21.75;;
22843;SDS011;11588;51.178;4.852;2024-01-11T07:32:37;49.15;;;23.52;;
22843;SDS011;11588;51.178;4.852;2024-01-11T07:35:04;50.08;;;22.40;;
22843;SDS011;11588;51.178;4.852;2024-01-11T07:37:31;46.55;;;22.52;;
22843;SDS011;11588;51.178;4.852;2024-01-11T07:39:58;48.47;;;22.45;;
22843;SDS011;11588;51.178;4.852;2024-01-11T07:42:24;46.65;;;22.00;;
22843;SDS011;11588;51.178;4.852;2024-01-11T07:44:51;48.80;;;23.02;;
22843;SDS011;11588;51.178;4.852;2024-01-11T07:47:17;42.83;;;21.95;;
22843;SDS011;11588;51.178;4.852;2024-01-11T07:49:44;46.45;;;21.25;;
22843;SDS011;11588;51.178;4.852;2024-01-11T07:52:10;45.75;;;21.88;;
22843;SDS011;11588;51.178;4.852;2024-01-11T07:54:37;48.10;;;21.77;;
22843;SDS011;11588;51.178;4.852;2024-01-11T07:57:03;48.72;;;22.40;;
22843;SDS011;11588;51.178;4.852;2024-01-11T07:59:33;41.55;;;21.70;;
22843;SDS011;11588;51.178;4.852;2024-01-11T08:02:02;45.88;;;22.38;;
22843;SDS011;11588;51.178;4.852;2024-01-11T08:04:28;47.35;;;21.42;;
22843;SDS011;11588;51.178;4.852;2024-01-11T08:06:55;47.65;;;22.17;;
22843;SDS011;11588;51.178;4.852;2024-01-11T08:09:21;45.28;;;20.88;;
22843;SDS011;11588;51.178;4.852;2024-01-11T08:11:48;44.90;;;21.27;;
22843;SDS011;11588;51.178;4.852;2024-01-11T08:14:14;45.00;;;21.35;;
22843;SDS011;11588;51.178;4.852;2024-01-11T08:16:41;44.10;;;22.10;;
22843;SDS011;11588;51.178;4.852;2024-01-11T08:19:08;43.60;;;21.30;;
22843;SDS011;11588;51.178;4.852;2024-01-11T08:21:36;43.42;;;19.80;;
22843;SDS011;11588;51.178;4.852;2024-01-11T08:24:02;42.78;;;21.42;;
22843;SDS011;11588;51.178;4.852;2024-01-11T08:26:29;41.72;;;20.90;;
22843;SDS011;11588;51.178;4.852;2024-01-11T08:28:57;43.50;;;21.42;;
22843;SDS011;11588;51.178;4.852;2024-01-11T08:31:23;46.45;;;21.13;;
22843;SDS011;11588;51.178;4.852;2024-01-11T08:33:50;46.30;;;22.15;;
22843;SDS011;11588;51.178;4.852;2024-01-11T08:36:16;48.10;;;22.23;;
22843;SDS011;11588;51.178;4.852;2024-01-11T08:38:43;48.70;;;22.27;;
22843;SDS011;11588;51.178;4.852;2024-01-11T08:41:09;47.90;;;22.38;;
22843;SDS011;11588;51.178;4.852;2024-01-11T08:43:36;52.50;;;23.30;;
22843;SDS011;11588;51.178;4.852;2024-01-11T08:46:02;45.63;;;23.70;;
22843;SDS011;11588;51.178;4.852;2024-01-11T08:48:29;41.95;;;22.35;;
22843;SDS011;11588;51.178;4.852;2024-01-11T08:50:56;46.15;;;23.50;;
22843;SDS011;11588;51.178;4.852;2024-01-11T08:53:22;49.45;;;22.73;;
22843;SDS011;11588;51.178;4.852;2024-01-11T08:55:49;47.70;;;22.17;;
22843;SDS011;11588;51.178;4.852;2024-01-11T08:58:15;45.13;;;21.85;;
22843;SDS011;11588;51.178;4.852;2024-01-11T09:00:41;42.10;;;21.60;;
22843;SDS011;11588;51.178;4.852;2024-01-11T09:03:08;47.53;;;23.00;;
22843;SDS011;11588;51.178;4.852;2024-01-11T09:05:35;48.45;;;22.65;;
22843;SDS011;11588;51.178;4.852;2024-01-11T09:08:01;42.85;;;22.95;;
22843;SDS011;11588;51.178;4.852;2024-01-11T09:10:28;45.50;;;22.60;;
22843;SDS011;11588;51.178;4.852;2024-01-11T09:12:54;44.90;;;21.80;;
22843;SDS011;11588;51.178;4.852;2024-01-11T09:15:21;44.03;;;21.70;;
22843;SDS011;11588;51.178;4.852;2024-01-11T09:17:48;46.85;;;21.98;;
22843;SDS011;11588;51.178;4.852;2024-01-11T09:20:14;50.38;;;23.08;;
22843;SDS011;11588;51.178;4.852;2024-01-11T09:22:41;44.03;;;22.27;;
22843;SDS011;11588;51.178;4.852;2024-01-11T09:25:07;48.88;;;22.63;;
22843;SDS011;11588;51.178;4.852;2024-01-11T09:27:34;46.15;;;22.20;;
22843;SDS011;11588;51.178;4.852;2024-01-11T09:30:01;50.53;;;22.73;;
22843;SDS011;11588;51.178;4.852;2024-01-11T09:32:28;43.95;;;23.55;;
22843;SDS011;11588;51.178;4.852;2024-01-11T09:34:56;38.53;;;20.92;;
22843;SDS011;11588;51.178;4.852;2024-01-11T09:37:23;39.05;;;20.98;;
22843;SDS011;11588;51.178;4.852;2024-01-11T09:39:49;40.83;;;21.95;;
22843;SDS011;11588;51.178;4.852;2024-01-11T09:42:16;38.42;;;21.75;;
22843;SDS011;11588;51.178;4.852;2024-01-11T09:44:44;42.50;;;22.00;;
22843;SDS011;11588;51.178;4.852;2024-01-11T09:47:11;43.72;;;22.08;;
22843;SDS011;11588;51.178;4.852;2024-01-11T09:49:37;46.50;;;23.02;;
22843;SDS011;11588;51.178;4.852;2024-01-11T09:52:04;46.28;;;22.10;;
22843;SDS011;11588;51.178;4.852;2024-01-11T09:54:32;44.40;;;22.20;;
22843;SDS011;11588;51.178;4.852;2024-01-11T09:56:58;41.78;;;22.05;;
22843;SDS011;11588;51.178;4.852;2024-01-11T09:59:26;40.47;;;20.88;;
22843;SDS011;11588;51.178;4.852;2024-01-11T10:01:52;40.00;;;21.58;;
22843;SDS011;11588;51.178;4.852;2024-01-11T10:04:19;45.58;;;21.35;;
22843;SDS011;11588;51.178;4.852;2024-01-11T10:06:45;40.88;;;20.73;;
22843;SDS011;11588;51.178;4.852;2024-01-11T10:09:12;41.42;;;21.58;;
22843;SDS011;11588;51.178;4.852;2024-01-11T10:11:39;42.08;;;21.63;;
22843;SDS011;11588;51.178;4.852;2024-01-11T10:14:05;39.25;;;20.38;;
22843;SDS011;11588;51.178;4.852;2024-01-11T10:16:32;49.40;;;21.77;;
22843;SDS011;11588;51.178;4.852;2024-01-11T10:18:58;41.72;;;21.27;;
22843;SDS011;11588;51.178;4.852;2024-01-11T10:21:26;45.20;;;21.20;;
22843;SDS011;11588;51.178;4.852;2024-01-11T10:23:53;40.78;;;21.70;;
22843;SDS011;11588;51.178;4.852;2024-01-11T10:26:19;39.35;;;20.85;;
22843;SDS011;11588;51.178;4.852;2024-01-11T10:28:47;41.20;;;20.85;;
22843;SDS011;11588;51.178;4.852;2024-01-11T10:31:14;40.10;;;20.63;;
22843;SDS011;11588;51.178;4.852;2024-01-11T10:33:41;38.80;;;20.13;;
22843;SDS011;11588;51.178;4.852;2024-01-11T10:36:07;45.45;;;21.45;;
22843;SDS011;11588;51.178;4.852;2024-01-11T10:38:35;39.78;;;20.35;;
22843;SDS011;11588;51.178;4.852;2024-01-11T10:41:04;38.78;;;20.88;;
22843;SDS011;11588;51.178;4.852;2024-01-11T10:43:31;40.17;;;20.75;;
22843;SDS011;11588;51.178;4.852;2024-01-11T10:45:59;40.55;;;21.65;;
22843;SDS011;11588;51.178;4.852;2024-01-11T10:48:26;37.60;;;21.60;;
22843;SDS011;11588;51.178;4.852;2024-01-11T10:50:58;42.15;;;21.65;;
22843;SDS011;11588;51.178;4.852;2024-01-11T10:56:04;40.17;;;21.17;;
22843;SDS011;11588;51.178;4.852;2024-01-11T10:58:33;38.25;;;21.25;;
22843;SDS011;11588;51.178;4.852;2024-01-11T11:01:01;38.08;;;20.88;;
22843;SDS011;11588;51.178;4.852;2024-01-11T11:03:28;37.78;;;21.60;;
22843;SDS011;11588;51.178;4.852;2024-01-11T11:05:58;35.72;;;21.08;;
22843;SDS011;11588;51.178;4.852;2024-01-11T11:08:24;36.00;;;20.30;;
22843;SDS011;11588;51.178;4.852;2024-01-11T11:10:56;38.72;;;21.67;;
22843;SDS011;11588;51.178;4.852;2024-01-11T11:13:25;36.97;;;20.10;;
22843;SDS011;11588;51.178;4.852;2024-01-11T11:15:51;36.92;;;21.13;;
22843;SDS011;11588;51.178;4.852;2024-01-11T11:18:19;32.58;;;19.77;;
22843;SDS011;11588;51.178;4.852;2024-01-11T11:20:46;33.95;;;21.08;;
22843;SDS011;11588;51.178;4.852;2024-01-11T11:23:14;37.55;;;20.35;;
22843;SDS011;11588;51.178;4.852;2024-01-11T11:25:42;33.67;;;20.08;;
22843;SDS011;11588;51.178;4.852;2024-01-11T11:28:10;33.08;;;20.50;;
22843;SDS011;11588;51.178;4.852;2024-01-11T11:30:37;36.00;;;21.40;;
22843;SDS011;11588;51.178;4.852;2024-01-11T11:33:09;33.28;;;21.40;;
22843;SDS011;11588;51.178;4.852;2024-01-11T11:35:37;35.45;;;22.15;;
22843;SDS011;11588;51.178;4.852;2024-01-11T11:38:05;33.80;;;22.05;;
22843;SDS011;11588;51.178;4.852;2024-01-11T11:40:33;36.03;;;21.38;;
22843;SDS011;11588;51.178;4.852;2024-01-11T11:43:05;34.92;;;20.88;;
22843;SDS011;11588;51.178;4.852;2024-01-11T11:45:32;32.15;;;21.45;;
22843;SDS011;11588;51.178;4.852;2024-01-11T11:47:59;32.08;;;21.42;;
22843;SDS011;11588;51.178;4.852;2024-01-11T11:50:25;33.78;;;20.70;;
22843;SDS011;11588;51.178;4.852;2024-01-11T11:52:55;36.50;;;22.35;;
22843;SDS011;11588;51.178;4.852;2024-01-11T11:55:24;39.50;;;21.88;;
22843;SDS011;11588;51.178;4.852;2024-01-11T11:57:52;34.03;;;21.80;;
22843;SDS011;11588;51.178;4.852;2024-01-11T12:00:20;32.67;;;21.88;;
22843;SDS011;11588;51.178;4.852;2024-01-11T12:02:47;34.50;;;21.92;;
22843;SDS011;11588;51.178;4.852;2024-01-11T12:05:14;32.47;;;21.88;;
22843;SDS011;11588;51.178;4.852;2024-01-11T12:07:40;37.92;;;21.70;;
22843;SDS011;11588;51.178;4.852;2024-01-11T12:10:07;36.05;;;21.17;;
22843;SDS011;11588;51.178;4.852;2024-01-11T12:12:34;36.30;;;21.88;;
22843;SDS011;11588;51.178;4.852;2024-01-11T12:15:02;35.67;;;21.33;;
22843;SDS011;11588;51.178;4.852;2024-01-11T12:17:28;36.13;;;21.77;;
22843;SDS011;11588;51.178;4.852;2024-01-11T12:19:55;36.22;;;21.67;;
22843;SDS011;11588;51.178;4.852;2024-01-11T12:22:21;34.50;;;21.65;;
22843;SDS011;11588;51.178;4.852;2024-01-11T12:24:47;35.47;;;20.85;;
22843;SDS011;11588;51.178;4.852;2024-01-11T12:27:14;34.15;;;21.38;;
22843;SDS011;11588;51.178;4.852;2024-01-11T12:29:41;33.08;;;20.98;;
22843;SDS011;11588;51.178;4.852;2024-01-11T12:32:08;34.92;;;20.83;;
22843;SDS011;11588;51.178;4.852;2024-01-11T12:34:36;32.10;;;20.48;;
22843;SDS011;11588;51.178;4.852;2024-01-11T12:37:05;36.85;;;21.52;;
22843;SDS011;11588;51.178;4.852;2024-01-11T12:39:31;32.03;;;20.33;;
22843;SDS011;11588;51.178;4.852;2024-01-11T12:41:57;32.83;;;20.38;;
22843;SDS011;11588;51.178;4.852;2024-01-11T12:44:24;33.50;;;21.27;;
22843;SDS011;11588;51.178;4.852;2024-01-11T12:46:51;33.33;;;20.75;;
22843;SDS011;11588;51.178;4.852;2024-01-11T12:49:18;35.70;;;21.05;;
22843;SDS011;11588;51.178;4.852;2024-01-11T12:51:45;36.90;;;21.17;;
22843;SDS011;11588;51.178;4.852;2024-01-11T12:54:12;34.58;;;21.00;;
22843;SDS011;11588;51.178;4.852;2024-01-11T12:56:41;38.70;;;21.67;;
22843;SDS011;11588;51.178;4.852;2024-01-11T12:59:08;33.53;;;20.60;;
22843;SDS011;11588;51.178;4.852;2024-01-11T13:01:36;37.45;;;21.88;;
22843;SDS011;11588;51.178;4.852;2024-01-11T13:04:02;33.85;;;22.05;;
22843;SDS011;11588;51.178;4.852;2024-01-11T13:06:29;35.78;;;22.13;;
22843;SDS011;11588;51.178;4.852;2024-01-11T13:08:57;35.20;;;20.80;;
22843;SDS011;11588;51.178;4.852;2024-01-11T13:11:23;38.00;;;21.05;;
22843;SDS011;11588;51.178;4.852;2024-01-11T13:13:51;35.88;;;21.38;;
22843;SDS011;11588;51.178;4.852;2024-01-11T13:16:18;33.80;;;21.25;;
22843;SDS011;11588;51.178;4.852;2024-01-11T13:18:45;35.38;;;21.15;;
22843;SDS011;11588;51.178;4.852;2024-01-11T13:21:12;32.10;;;19.52;;
22843;SDS011;11588;51.178;4.852;2024-01-11T13:23:38;39.10;;;21.55;;
22843;SDS011;11588;51.178;4.852;2024-01-11T13:26:06;36.53;;;21.05;;
22843;SDS011;11588;51.178;4.852;2024-01-11T13:28:33;36.85;;;21.73;;
22843;SDS011;11588;51.178;4.852;2024-01-11T13:30:59;37.47;;;20.77;;
22843;SDS011;11588;51.178;4.852;2024-01-11T13:33:27;33.58;;;19.85;;
22843;SDS011;11588;51.178;4.852;2024-01-11T13:35:54;34.33;;;19.75;;
22843;SDS011;11588;51.178;4.852;2024-01-11T13:38:21;29.73;;;18.83;;
22843;SDS011;11588;51.178;4.852;2024-01-11T13:40:48;30.98;;;19.70;;
22843;SDS011;11588;51.178;4.852;2024-01-11T13:43:14;35.55;;;19.63;;
22843;SDS011;11588;51.178;4.852;2024-01-11T13:45:40;34.33;;;19.77;;
22843;SDS011;11588;51.178;4.852;2024-01-11T13:48:06;34.05;;;19.70;;
22843;SDS011;11588;51.178;4.852;2024-01-11T13:50:33;32.40;;;19.65;;
22843;SDS011;11588;51.178;4.852;2024-01-11T13:53:00;31.55;;;20.38;;
22843;SDS011;11588;51.178;4.852;2024-01-11T13:55:27;33.90;;;20.60;;
22843;SDS011;11588;51.178;4.852;2024-01-11T13:57:53;33.97;;;20.42;;
22843;SDS011;11588;51.178;4.852;2024-01-11T14:00:20;33.47;;;21.35;;
22843;SDS011;11588;51.178;4.852;2024-01-11T14:02:46;30.73;;;20.15;;
22843;SDS011;11588;51.178;4.852;2024-01-11T14:05:13;33.17;;;21.05;;
22843;SDS011;11588;51.178;4.852;2024-01-11T14:07:41;35.75;;;21.52;;
22843;SDS011;11588;51.178;4.852;2024-01-11T14:10:08;36.72;;;21.55;;
22843;SDS011;11588;51.178;4.852;2024-01-11T14:12:35;35.58;;;20.70;;
22843;SDS011;11588;51.178;4.852;2024-01-11T14:15:02;31.55;;;19.80;;
22843;SDS011;11588;51.178;4.852;2024-01-11T14:17:30;28.08;;;17.75;;
22843;SDS011;11588;51.178;4.852;2024-01-11T14:19:56;30.52;;;17.60;;
22843;SDS011;11588;51.178;4.852;2024-01-11T14:22:22;30.85;;;16.60;;
22843;SDS011;11588;51.178;4.852;2024-01-11T14:24:50;26.58;;;13.00;;